sensor_id;sensor_type;location;lat;lon;timestamp;temperature;humidity
30999;DHT22;20549;50.042;8.968;2023-03-16T00:01:06;2.30;87.70
30999;DHT22;20549;50.042;8.968;2023-03-16T00:03:31;2.30;87.90
30999;DHT22;20549;50.042;8.968;2023-03-16T00:05:58;2.20;88.00
30999;DHT22;20549;50.042;8.968;2023-03-16T00:08:24;2.20;88.30
30999;DHT22;20549;50.042;8.968;2023-03-16T00:10:51;2.20;88.40
30999;DHT22;20549;50.042;8.968;2023-03-16T00:13:18;2.20;88.00
30999;DHT22;20549;50.042;8.968;2023-03-16T00:15:57;2.20;88.50
30999;DHT22;20549;50.042;8.968;2023-03-16T00:18:24;2.20;88.60
30999;DHT22;20549;50.042;8.968;2023-03-16T00:20:59;2.10;88.60
30999;DHT22;20549;50.042;8.968;2023-03-16T00:23:25;2.10;88.50
30999;DHT22;20549;50.042;8.968;2023-03-16T00:25:57;2.10;88.60
30999;DHT22;20549;50.042;8.968;2023-03-16T00:28:24;2.00;88.70
30999;DHT22;20549;50.042;8.968;2023-03-16T00:30:50;2.00;88.90
30999;DHT22;20549;50.042;8.968;2023-03-16T00:33:16;1.90;89.00
30999;DHT22;20549;50.042;8.968;2023-03-16T00:35:46;1.90;89.10
30999;DHT22;20549;50.042;8.968;2023-03-16T00:38:12;1.90;89.30
30999;DHT22;20549;50.042;8.968;2023-03-16T00:40:39;1.90;89.50
30999;DHT22;20549;50.042;8.968;2023-03-16T00:43:05;1.80;89.60
30999;DHT22;20549;50.042;8.968;2023-03-16T00:45:32;1.80;89.60
30999;DHT22;20549;50.042;8.968;2023-03-16T00:47:59;1.80;89.70
30999;DHT22;20549;50.042;8.968;2023-03-16T00:50:25;1.70;89.90
30999;DHT22;20549;50.042;8.968;2023-03-16T00:52:52;1.70;90.10
30999;DHT22;20549;50.042;8.968;2023-03-16T00:55:19;1.70;90.30
30999;DHT22;20549;50.042;8.968;2023-03-16T00:57:45;1.70;90.40
30999;DHT22;20549;50.042;8.968;2023-03-16T01:00:12;1.70;90.40
30999;DHT22;20549;50.042;8.968;2023-03-16T01:02:38;1.70;90.60
30999;DHT22;20549;50.042;8.968;2023-03-16T01:05:05;1.70;90.60
30999;DHT22;20549;50.042;8.968;2023-03-16T01:07:31;1.70;90.60
30999;DHT22;20549;50.042;8.968;2023-03-16T01:09:58;1.70;90.70
30999;DHT22;20549;50.042;8.968;2023-03-16T01:12:25;1.70;90.70
30999;DHT22;20549;50.042;8.968;2023-03-16T01:14:51;1.70;91.10
30999;DHT22;20549;50.042;8.968;2023-03-16T01:17:18;1.70;90.80
30999;DHT22;20549;50.042;8.968;2023-03-16T01:19:44;1.70;90.80
30999;DHT22;20549;50.042;8.968;2023-03-16T01:22:11;1.70;90.80
30999;DHT22;20549;50.042;8.968;2023-03-16T01:24:38;1.70;90.90
30999;DHT22;20549;50.042;8.968;2023-03-16T01:27:04;1.60;90.90
30999;DHT22;20549;50.042;8.968;2023-03-16T01:29:31;1.60;91.10
30999;DHT22;20549;50.042;8.968;2023-03-16T01:31:57;1.60;91.10
30999;DHT22;20549;50.042;8.968;2023-03-16T01:34:24;1.60;91.20
30999;DHT22;20549;50.042;8.968;2023-03-16T01:36:51;1.60;91.30
30999;DHT22;20549;50.042;8.968;2023-03-16T01:39:17;1.60;91.30
30999;DHT22;20549;50.042;8.968;2023-03-16T01:41:44;1.60;91.40
30999;DHT22;20549;50.042;8.968;2023-03-16T01:44:20;1.60;91.30
30999;DHT22;20549;50.042;8.968;2023-03-16T01:46:43;1.60;91.40
30999;DHT22;20549;50.042;8.968;2023-03-16T01:49:19;1.60;91.40
30999;DHT22;20549;50.042;8.968;2023-03-16T01:51:58;1.60;91.40
30999;DHT22;20549;50.042;8.968;2023-03-16T01:54:40;1.60;91.30
30999;DHT22;20549;50.042;8.968;2023-03-16T01:57:04;1.60;91.40
30999;DHT22;20549;50.042;8.968;2023-03-16T01:59:34;1.50;91.40
30999;DHT22;20549;50.042;8.968;2023-03-16T02:01:58;1.50;91.40
30999;DHT22;20549;50.042;8.968;2023-03-16T02:07:09;1.50;91.60
30999;DHT22;20549;50.042;8.968;2023-03-16T02:09:36;1.50;91.60
30999;DHT22;20549;50.042;8.968;2023-03-16T02:12:02;1.50;91.60
30999;DHT22;20549;50.042;8.968;2023-03-16T02:14:29;1.40;91.70
30999;DHT22;20549;50.042;8.968;2023-03-16T02:16:55;1.40;91.60
30999;DHT22;20549;50.042;8.968;2023-03-16T02:19:29;1.50;91.80
30999;DHT22;20549;50.042;8.968;2023-03-16T02:21:57;1.50;91.80
30999;DHT22;20549;50.042;8.968;2023-03-16T02:24:21;1.50;91.90
30999;DHT22;20549;50.042;8.968;2023-03-16T02:26:55;1.50;91.90
30999;DHT22;20549;50.042;8.968;2023-03-16T02:29:29;1.50;92.00
30999;DHT22;20549;50.042;8.968;2023-03-16T02:31:53;1.50;92.00
30999;DHT22;20549;50.042;8.968;2023-03-16T02:34:19;1.50;92.00
30999;DHT22;20549;50.042;8.968;2023-03-16T02:36:46;1.40;92.00
30999;DHT22;20549;50.042;8.968;2023-03-16T02:39:12;1.40;92.00
30999;DHT22;20549;50.042;8.968;2023-03-16T02:41:39;1.40;92.10
30999;DHT22;20549;50.042;8.968;2023-03-16T02:44:10;1.40;91.90
30999;DHT22;20549;50.042;8.968;2023-03-16T02:46:35;1.40;92.00
30999;DHT22;20549;50.042;8.968;2023-03-16T02:49:06;1.40;92.20
30999;DHT22;20549;50.042;8.968;2023-03-16T02:51:31;1.40;92.10
30999;DHT22;20549;50.042;8.968;2023-03-16T02:53:57;1.40;92.30
30999;DHT22;20549;50.042;8.968;2023-03-16T02:56:24;1.40;92.30
30999;DHT22;20549;50.042;8.968;2023-03-16T02:58:50;1.40;92.30
30999;DHT22;20549;50.042;8.968;2023-03-16T03:01:17;1.30;92.30
30999;DHT22;20549;50.042;8.968;2023-03-16T03:03:44;1.30;92.30
30999;DHT22;20549;50.042;8.968;2023-03-16T03:06:10;1.30;92.30
30999;DHT22;20549;50.042;8.968;2023-03-16T03:08:37;1.30;92.40
30999;DHT22;20549;50.042;8.968;2023-03-16T03:11:03;1.30;92.60
30999;DHT22;20549;50.042;8.968;2023-03-16T03:13:30;1.30;92.60
30999;DHT22;20549;50.042;8.968;2023-03-16T03:15:57;1.30;92.70
30999;DHT22;20549;50.042;8.968;2023-03-16T03:18:23;1.30;92.40
30999;DHT22;20549;50.042;8.968;2023-03-16T03:20:50;1.30;92.80
30999;DHT22;20549;50.042;8.968;2023-03-16T03:23:16;1.30;92.90
30999;DHT22;20549;50.042;8.968;2023-03-16T03:25:43;1.30;92.90
30999;DHT22;20549;50.042;8.968;2023-03-16T03:28:09;1.30;93.00
30999;DHT22;20549;50.042;8.968;2023-03-16T03:30:36;1.30;93.10
30999;DHT22;20549;50.042;8.968;2023-03-16T03:33:03;1.40;93.10
30999;DHT22;20549;50.042;8.968;2023-03-16T03:35:29;1.30;93.00
30999;DHT22;20549;50.042;8.968;2023-03-16T03:37:56;1.40;93.10
30999;DHT22;20549;50.042;8.968;2023-03-16T03:40:22;1.40;93.10
30999;DHT22;20549;50.042;8.968;2023-03-16T03:42:49;1.40;92.80
30999;DHT22;20549;50.042;8.968;2023-03-16T03:45:16;1.30;93.20
30999;DHT22;20549;50.042;8.968;2023-03-16T03:47:43;1.30;93.20
30999;DHT22;20549;50.042;8.968;2023-03-16T03:50:09;1.30;93.30
30999;DHT22;20549;50.042;8.968;2023-03-16T03:52:36;1.30;93.30
30999;DHT22;20549;50.042;8.968;2023-03-16T03:55:02;1.40;93.40
30999;DHT22;20549;50.042;8.968;2023-03-16T03:57:29;1.30;93.40
30999;DHT22;20549;50.042;8.968;2023-03-16T03:59:55;1.40;93.40
30999;DHT22;20549;50.042;8.968;2023-03-16T04:02:22;1.40;93.50
30999;DHT22;20549;50.042;8.968;2023-03-16T04:04:48;1.30;93.60
30999;DHT22;20549;50.042;8.968;2023-03-16T04:07:15;1.40;93.60
30999;DHT22;20549;50.042;8.968;2023-03-16T04:09:42;1.40;93.60
30999;DHT22;20549;50.042;8.968;2023-03-16T04:12:09;1.40;93.70
30999;DHT22;20549;50.042;8.968;2023-03-16T04:14:35;1.40;93.80
30999;DHT22;20549;50.042;8.968;2023-03-16T04:17:01;1.40;93.90
30999;DHT22;20549;50.042;8.968;2023-03-16T04:19:28;1.40;93.80
30999;DHT22;20549;50.042;8.968;2023-03-16T04:21:55;1.40;93.90
30999;DHT22;20549;50.042;8.968;2023-03-16T04:24:21;1.40;93.90
30999;DHT22;20549;50.042;8.968;2023-03-16T04:26:48;1.40;94.30
30999;DHT22;20549;50.042;8.968;2023-03-16T04:29:15;1.40;93.90
30999;DHT22;20549;50.042;8.968;2023-03-16T04:31:41;1.40;93.90
30999;DHT22;20549;50.042;8.968;2023-03-16T04:34:08;1.40;93.90
30999;DHT22;20549;50.042;8.968;2023-03-16T04:36:34;1.40;93.90
30999;DHT22;20549;50.042;8.968;2023-03-16T04:39:01;1.50;94.00
30999;DHT22;20549;50.042;8.968;2023-03-16T04:41:27;1.40;93.80
30999;DHT22;20549;50.042;8.968;2023-03-16T04:43:54;1.40;93.80
30999;DHT22;20549;50.042;8.968;2023-03-16T04:46:20;1.40;93.80
30999;DHT22;20549;50.042;8.968;2023-03-16T04:48:47;1.40;93.80
30999;DHT22;20549;50.042;8.968;2023-03-16T04:51:14;1.40;93.90
30999;DHT22;20549;50.042;8.968;2023-03-16T04:53:40;1.40;94.00
30999;DHT22;20549;50.042;8.968;2023-03-16T04:56:07;1.40;94.00
30999;DHT22;20549;50.042;8.968;2023-03-16T04:58:33;1.40;94.10
30999;DHT22;20549;50.042;8.968;2023-03-16T05:01:00;1.40;94.10
30999;DHT22;20549;50.042;8.968;2023-03-16T05:03:27;1.40;94.20
30999;DHT22;20549;50.042;8.968;2023-03-16T05:05:53;1.40;94.00
30999;DHT22;20549;50.042;8.968;2023-03-16T05:08:20;1.40;94.00
30999;DHT22;20549;50.042;8.968;2023-03-16T05:10:46;1.40;94.20
30999;DHT22;20549;50.042;8.968;2023-03-16T05:13:13;1.40;94.20
30999;DHT22;20549;50.042;8.968;2023-03-16T05:15:39;1.40;94.20
30999;DHT22;20549;50.042;8.968;2023-03-16T05:18:06;1.40;94.20
30999;DHT22;20549;50.042;8.968;2023-03-16T05:20:33;1.30;94.30
30999;DHT22;20549;50.042;8.968;2023-03-16T05:22:59;1.30;94.30
30999;DHT22;20549;50.042;8.968;2023-03-16T05:25:26;1.30;94.40
30999;DHT22;20549;50.042;8.968;2023-03-16T05:27:52;1.30;94.50
30999;DHT22;20549;50.042;8.968;2023-03-16T05:30:19;1.30;94.50
30999;DHT22;20549;50.042;8.968;2023-03-16T05:32:45;1.40;94.60
30999;DHT22;20549;50.042;8.968;2023-03-16T05:35:12;1.30;94.70
30999;DHT22;20549;50.042;8.968;2023-03-16T05:37:39;1.30;94.80
30999;DHT22;20549;50.042;8.968;2023-03-16T05:40:05;1.40;94.80
30999;DHT22;20549;50.042;8.968;2023-03-16T05:42:35;1.40;94.90
30999;DHT22;20549;50.042;8.968;2023-03-16T05:45:01;1.40;95.00
30999;DHT22;20549;50.042;8.968;2023-03-16T05:47:28;1.40;95.00
30999;DHT22;20549;50.042;8.968;2023-03-16T05:49:54;1.40;95.10
30999;DHT22;20549;50.042;8.968;2023-03-16T05:52:21;1.50;95.30
30999;DHT22;20549;50.042;8.968;2023-03-16T05:54:47;1.50;95.40
30999;DHT22;20549;50.042;8.968;2023-03-16T05:57:14;1.50;95.50
30999;DHT22;20549;50.042;8.968;2023-03-16T05:59:41;1.60;96.00
30999;DHT22;20549;50.042;8.968;2023-03-16T06:02:07;1.70;97.20
30999;DHT22;20549;50.042;8.968;2023-03-16T06:04:34;1.90;98.40
30999;DHT22;20549;50.042;8.968;2023-03-16T06:07:00;2.20;99.50
30999;DHT22;20549;50.042;8.968;2023-03-16T06:09:27;2.40;99.60
30999;DHT22;20549;50.042;8.968;2023-03-16T06:11:54;2.70;99.10
30999;DHT22;20549;50.042;8.968;2023-03-16T06:14:20;3.00;98.80
30999;DHT22;20549;50.042;8.968;2023-03-16T06:16:47;3.10;97.90
30999;DHT22;20549;50.042;8.968;2023-03-16T06:19:13;3.40;97.70
30999;DHT22;20549;50.042;8.968;2023-03-16T06:21:40;3.60;98.20
30999;DHT22;20549;50.042;8.968;2023-03-16T06:24:06;3.80;98.30
30999;DHT22;20549;50.042;8.968;2023-03-16T06:26:34;4.10;98.40
30999;DHT22;20549;50.042;8.968;2023-03-16T06:29:00;4.40;98.80
30999;DHT22;20549;50.042;8.968;2023-03-16T06:31:26;4.70;99.20
30999;DHT22;20549;50.042;8.968;2023-03-16T06:33:53;5.10;99.90
30999;DHT22;20549;50.042;8.968;2023-03-16T06:36:19;5.60;99.80
30999;DHT22;20549;50.042;8.968;2023-03-16T06:38:46;6.00;99.70
30999;DHT22;20549;50.042;8.968;2023-03-16T06:41:13;6.60;99.70
30999;DHT22;20549;50.042;8.968;2023-03-16T06:43:39;7.10;99.60
30999;DHT22;20549;50.042;8.968;2023-03-16T06:46:06;7.70;99.40
30999;DHT22;20549;50.042;8.968;2023-03-16T06:48:32;8.20;99.10
30999;DHT22;20549;50.042;8.968;2023-03-16T06:50:59;8.80;98.00
30999;DHT22;20549;50.042;8.968;2023-03-16T06:53:25;9.30;96.90
30999;DHT22;20549;50.042;8.968;2023-03-16T06:55:52;9.90;95.30
30999;DHT22;20549;50.042;8.968;2023-03-16T06:58:19;10.30;94.20
30999;DHT22;20549;50.042;8.968;2023-03-16T07:00:45;10.80;93.20
30999;DHT22;20549;50.042;8.968;2023-03-16T07:03:12;11.30;92.50
30999;DHT22;20549;50.042;8.968;2023-03-16T07:05:38;11.80;91.80
30999;DHT22;20549;50.042;8.968;2023-03-16T07:08:05;12.30;91.20
30999;DHT22;20549;50.042;8.968;2023-03-16T07:10:32;12.80;90.30
30999;DHT22;20549;50.042;8.968;2023-03-16T07:12:58;13.40;89.00
30999;DHT22;20549;50.042;8.968;2023-03-16T07:15:25;13.90;87.80
30999;DHT22;20549;50.042;8.968;2023-03-16T07:17:51;14.40;86.00
30999;DHT22;20549;50.042;8.968;2023-03-16T07:20:18;14.90;84.10
30999;DHT22;20549;50.042;8.968;2023-03-16T07:22:45;15.30;81.80
30999;DHT22;20549;50.042;8.968;2023-03-16T07:25:11;15.80;80.00
30999;DHT22;20549;50.042;8.968;2023-03-16T07:27:38;16.20;78.40
30999;DHT22;20549;50.042;8.968;2023-03-16T07:30:04;16.60;77.20
30999;DHT22;20549;50.042;8.968;2023-03-16T07:32:31;16.90;76.10
30999;DHT22;20549;50.042;8.968;2023-03-16T07:34:58;17.30;75.20
30999;DHT22;20549;50.042;8.968;2023-03-16T07:37:24;17.60;74.40
30999;DHT22;20549;50.042;8.968;2023-03-16T07:39:51;18.00;73.30
30999;DHT22;20549;50.042;8.968;2023-03-16T07:42:17;18.30;72.00
30999;DHT22;20549;50.042;8.968;2023-03-16T07:44:44;18.60;71.00
30999;DHT22;20549;50.042;8.968;2023-03-16T07:47:13;18.90;69.80
30999;DHT22;20549;50.042;8.968;2023-03-16T07:49:40;19.20;69.00
30999;DHT22;20549;50.042;8.968;2023-03-16T07:52:06;19.40;68.20
30999;DHT22;20549;50.042;8.968;2023-03-16T07:54:33;19.70;67.10
30999;DHT22;20549;50.042;8.968;2023-03-16T07:57:00;20.00;66.40
30999;DHT22;20549;50.042;8.968;2023-03-16T07:59:26;20.20;65.70
30999;DHT22;20549;50.042;8.968;2023-03-16T08:01:53;20.40;65.00
30999;DHT22;20549;50.042;8.968;2023-03-16T08:04:19;20.60;63.90
30999;DHT22;20549;50.042;8.968;2023-03-16T08:06:46;20.70;62.60
30999;DHT22;20549;50.042;8.968;2023-03-16T08:09:13;20.70;61.90
30999;DHT22;20549;50.042;8.968;2023-03-16T08:11:39;20.80;60.90
30999;DHT22;20549;50.042;8.968;2023-03-16T08:14:06;20.80;60.40
30999;DHT22;20549;50.042;8.968;2023-03-16T08:16:32;20.70;59.70
30999;DHT22;20549;50.042;8.968;2023-03-16T08:18:59;20.50;58.90
30999;DHT22;20549;50.042;8.968;2023-03-16T08:21:26;20.20;58.40
30999;DHT22;20549;50.042;8.968;2023-03-16T08:23:52;20.10;58.60
30999;DHT22;20549;50.042;8.968;2023-03-16T08:26:19;20.00;59.30
30999;DHT22;20549;50.042;8.968;2023-03-16T08:28:46;20.00;59.40
30999;DHT22;20549;50.042;8.968;2023-03-16T08:31:12;20.10;59.60
30999;DHT22;20549;50.042;8.968;2023-03-16T08:33:41;20.20;59.90
30999;DHT22;20549;50.042;8.968;2023-03-16T08:36:06;20.40;59.80
30999;DHT22;20549;50.042;8.968;2023-03-16T08:38:32;20.50;59.30
30999;DHT22;20549;50.042;8.968;2023-03-16T08:40:58;20.70;59.10
30999;DHT22;20549;50.042;8.968;2023-03-16T08:43:25;20.90;58.80
30999;DHT22;20549;50.042;8.968;2023-03-16T08:45:54;21.00;58.30
30999;DHT22;20549;50.042;8.968;2023-03-16T08:48:21;21.20;58.00
30999;DHT22;20549;50.042;8.968;2023-03-16T08:50:47;21.30;57.80
30999;DHT22;20549;50.042;8.968;2023-03-16T08:53:14;21.50;57.60
30999;DHT22;20549;50.042;8.968;2023-03-16T08:55:41;21.60;57.30
30999;DHT22;20549;50.042;8.968;2023-03-16T08:58:08;21.70;57.00
30999;DHT22;20549;50.042;8.968;2023-03-16T09:00:34;21.80;56.60
30999;DHT22;20549;50.042;8.968;2023-03-16T09:03:00;21.80;56.00
30999;DHT22;20549;50.042;8.968;2023-03-16T09:05:27;21.90;55.60
30999;DHT22;20549;50.042;8.968;2023-03-16T09:07:53;22.00;55.80
30999;DHT22;20549;50.042;8.968;2023-03-16T09:10:20;22.00;55.40
30999;DHT22;20549;50.042;8.968;2023-03-16T09:12:47;22.10;55.20
30999;DHT22;20549;50.042;8.968;2023-03-16T09:15:13;22.10;55.00
30999;DHT22;20549;50.042;8.968;2023-03-16T09:17:40;22.20;54.80
30999;DHT22;20549;50.042;8.968;2023-03-16T09:20:09;22.20;54.10
30999;DHT22;20549;50.042;8.968;2023-03-16T09:22:36;22.20;53.10
30999;DHT22;20549;50.042;8.968;2023-03-16T09:25:05;22.10;52.70
30999;DHT22;20549;50.042;8.968;2023-03-16T09:27:32;22.00;52.60
30999;DHT22;20549;50.042;8.968;2023-03-16T09:29:58;21.80;52.70
30999;DHT22;20549;50.042;8.968;2023-03-16T09:32:25;21.70;52.80
30999;DHT22;20549;50.042;8.968;2023-03-16T09:34:51;21.60;52.60
30999;DHT22;20549;50.042;8.968;2023-03-16T09:37:18;21.50;52.80
30999;DHT22;20549;50.042;8.968;2023-03-16T09:39:44;21.40;53.30
30999;DHT22;20549;50.042;8.968;2023-03-16T09:47:28;21.30;52.90
30999;DHT22;20549;50.042;8.968;2023-03-16T09:49:56;21.20;52.60
30999;DHT22;20549;50.042;8.968;2023-03-16T09:52:27;21.00;52.00
30999;DHT22;20549;50.042;8.968;2023-03-16T09:54:58;20.80;51.70
30999;DHT22;20549;50.042;8.968;2023-03-16T09:57:30;20.50;51.60
30999;DHT22;20549;50.042;8.968;2023-03-16T09:59:57;20.10;52.00
30999;DHT22;20549;50.042;8.968;2023-03-16T10:10:14;18.70;52.10
30999;DHT22;20549;50.042;8.968;2023-03-16T10:12:33;18.40;52.50
30999;DHT22;20549;50.042;8.968;2023-03-16T10:15:12;18.00;52.60
30999;DHT22;20549;50.042;8.968;2023-03-16T10:17:44;17.70;52.90
30999;DHT22;20549;50.042;8.968;2023-03-16T10:20:17;17.40;53.20
30999;DHT22;20549;50.042;8.968;2023-03-16T10:22:43;17.10;53.60
30999;DHT22;20549;50.042;8.968;2023-03-16T10:25:31;16.90;54.40
30999;DHT22;20549;50.042;8.968;2023-03-16T10:27:57;16.70;53.70
30999;DHT22;20549;50.042;8.968;2023-03-16T10:30:27;16.50;53.90
30999;DHT22;20549;50.042;8.968;2023-03-16T10:32:53;16.30;53.40
30999;DHT22;20549;50.042;8.968;2023-03-16T10:35:31;16.10;53.40
30999;DHT22;20549;50.042;8.968;2023-03-16T10:37:55;15.80;53.60
30999;DHT22;20549;50.042;8.968;2023-03-16T10:40:21;15.50;53.70
30999;DHT22;20549;50.042;8.968;2023-03-16T10:42:48;15.20;53.70
30999;DHT22;20549;50.042;8.968;2023-03-16T10:45:28;14.90;54.10
30999;DHT22;20549;50.042;8.968;2023-03-16T10:47:53;14.70;54.50
30999;DHT22;20549;50.042;8.968;2023-03-16T10:50:24;14.40;55.00
30999;DHT22;20549;50.042;8.968;2023-03-16T10:52:49;14.30;55.50
30999;DHT22;20549;50.042;8.968;2023-03-16T10:55:26;14.20;56.00
30999;DHT22;20549;50.042;8.968;2023-03-16T10:57:52;14.20;57.10
30999;DHT22;20549;50.042;8.968;2023-03-16T11:00:37;14.20;56.60
30999;DHT22;20549;50.042;8.968;2023-03-16T11:03:12;14.20;56.60
30999;DHT22;20549;50.042;8.968;2023-03-16T11:05:30;14.20;56.90
30999;DHT22;20549;50.042;8.968;2023-03-16T11:07:59;14.20;56.80
30999;DHT22;20549;50.042;8.968;2023-03-16T11:10:34;14.20;56.80
30999;DHT22;20549;50.042;8.968;2023-03-16T11:13:01;14.20;56.80
30999;DHT22;20549;50.042;8.968;2023-03-16T11:15:27;14.20;56.80
30999;DHT22;20549;50.042;8.968;2023-03-16T11:17:53;14.20;56.80
30999;DHT22;20549;50.042;8.968;2023-03-16T11:20:25;14.20;56.60
30999;DHT22;20549;50.042;8.968;2023-03-16T11:22:50;14.10;56.50
30999;DHT22;20549;50.042;8.968;2023-03-16T11:25:31;14.10;56.50
30999;DHT22;20549;50.042;8.968;2023-03-16T11:28:05;14.00;56.70
30999;DHT22;20549;50.042;8.968;2023-03-16T11:30:34;13.90;56.70
30999;DHT22;20549;50.042;8.968;2023-03-16T11:33:00;13.80;56.70
30999;DHT22;20549;50.042;8.968;2023-03-16T11:35:34;13.70;56.90
30999;DHT22;20549;50.042;8.968;2023-03-16T11:38:18;13.60;56.40
30999;DHT22;20549;50.042;8.968;2023-03-16T11:43:51;13.50;57.00
30999;DHT22;20549;50.042;8.968;2023-03-16T11:46:24;13.30;57.00
30999;DHT22;20549;50.042;8.968;2023-03-16T11:51:34;13.20;57.30
30999;DHT22;20549;50.042;8.968;2023-03-16T11:54:29;13.10;57.60
30999;DHT22;20549;50.042;8.968;2023-03-16T11:56:56;13.00;57.80
30999;DHT22;20549;50.042;8.968;2023-03-16T11:59:32;13.00;58.10
30999;DHT22;20549;50.042;8.968;2023-03-16T12:04:55;13.10;58.60
30999;DHT22;20549;50.042;8.968;2023-03-16T12:07:34;13.10;58.50
30999;DHT22;20549;50.042;8.968;2023-03-16T12:15:30;13.20;58.60
30999;DHT22;20549;50.042;8.968;2023-03-16T12:17:55;13.30;58.70
30999;DHT22;20549;50.042;8.968;2023-03-16T12:20:27;13.20;58.50
30999;DHT22;20549;50.042;8.968;2023-03-16T12:23:07;13.20;58.30
30999;DHT22;20549;50.042;8.968;2023-03-16T12:25:33;13.20;58.20
30999;DHT22;20549;50.042;8.968;2023-03-16T12:27:59;13.20;58.20
30999;DHT22;20549;50.042;8.968;2023-03-16T12:30:36;13.10;58.20
30999;DHT22;20549;50.042;8.968;2023-03-16T12:35:39;13.10;58.70
30999;DHT22;20549;50.042;8.968;2023-03-16T12:38:12;13.20;59.00
30999;DHT22;20549;50.042;8.968;2023-03-16T12:46:01;13.40;59.10
30999;DHT22;20549;50.042;8.968;2023-03-16T12:48:29;13.40;58.90
30999;DHT22;20549;50.042;8.968;2023-03-16T12:50:57;13.50;59.00
30999;DHT22;20549;50.042;8.968;2023-03-16T12:53:27;13.50;59.00
30999;DHT22;20549;50.042;8.968;2023-03-16T12:55:52;13.60;58.20
30999;DHT22;20549;50.042;8.968;2023-03-16T12:58:19;13.60;58.80
30999;DHT22;20549;50.042;8.968;2023-03-16T13:00:52;13.60;59.00
30999;DHT22;20549;50.042;8.968;2023-03-16T13:03:13;13.70;59.20
30999;DHT22;20549;50.042;8.968;2023-03-16T13:05:43;13.80;59.70
30999;DHT22;20549;50.042;8.968;2023-03-16T13:08:15;13.90;59.00
30999;DHT22;20549;50.042;8.968;2023-03-16T13:10:41;13.90;58.80
30999;DHT22;20549;50.042;8.968;2023-03-16T13:13:12;14.00;58.70
30999;DHT22;20549;50.042;8.968;2023-03-16T13:15:37;14.10;58.80
30999;DHT22;20549;50.042;8.968;2023-03-16T13:20:58;14.20;58.80
30999;DHT22;20549;50.042;8.968;2023-03-16T13:23:25;14.20;58.80
30999;DHT22;20549;50.042;8.968;2023-03-16T13:26:03;14.30;58.70
30999;DHT22;20549;50.042;8.968;2023-03-16T13:28:34;14.40;58.70
30999;DHT22;20549;50.042;8.968;2023-03-16T13:30:56;14.40;58.50
30999;DHT22;20549;50.042;8.968;2023-03-16T13:33:23;14.50;58.50
30999;DHT22;20549;50.042;8.968;2023-03-16T13:35:49;14.50;58.10
30999;DHT22;20549;50.042;8.968;2023-03-16T13:38:16;14.50;57.80
30999;DHT22;20549;50.042;8.968;2023-03-16T13:40:48;14.50;57.80
30999;DHT22;20549;50.042;8.968;2023-03-16T13:43:15;14.50;57.80
30999;DHT22;20549;50.042;8.968;2023-03-16T13:45:38;14.50;57.90
30999;DHT22;20549;50.042;8.968;2023-03-16T13:48:05;14.50;57.90
30999;DHT22;20549;50.042;8.968;2023-03-16T13:50:32;14.50;58.00
30999;DHT22;20549;50.042;8.968;2023-03-16T13:52:59;14.50;58.00
30999;DHT22;20549;50.042;8.968;2023-03-16T13:55:29;14.50;58.10
30999;DHT22;20549;50.042;8.968;2023-03-16T13:57:51;14.50;58.00
30999;DHT22;20549;50.042;8.968;2023-03-16T14:00:19;14.50;58.00
30999;DHT22;20549;50.042;8.968;2023-03-16T14:02:45;14.60;57.90
30999;DHT22;20549;50.042;8.968;2023-03-16T14:05:15;14.60;57.80
30999;DHT22;20549;50.042;8.968;2023-03-16T14:07:37;14.60;57.90
30999;DHT22;20549;50.042;8.968;2023-03-16T14:10:05;14.60;57.80
30999;DHT22;20549;50.042;8.968;2023-03-16T14:12:31;14.60;57.70
30999;DHT22;20549;50.042;8.968;2023-03-16T14:14:57;14.60;57.80
30999;DHT22;20549;50.042;8.968;2023-03-16T14:17:24;14.70;57.80
30999;DHT22;20549;50.042;8.968;2023-03-16T14:19:51;14.70;57.70
30999;DHT22;20549;50.042;8.968;2023-03-16T14:22:18;14.70;57.60
30999;DHT22;20549;50.042;8.968;2023-03-16T14:24:44;14.60;57.50
30999;DHT22;20549;50.042;8.968;2023-03-16T14:27:17;14.60;57.40
30999;DHT22;20549;50.042;8.968;2023-03-16T14:29:43;14.60;57.50
30999;DHT22;20549;50.042;8.968;2023-03-16T14:32:22;14.60;57.40
30999;DHT22;20549;50.042;8.968;2023-03-16T14:34:48;14.50;57.50
30999;DHT22;20549;50.042;8.968;2023-03-16T14:37:15;14.50;57.50
30999;DHT22;20549;50.042;8.968;2023-03-16T14:39:41;14.50;57.30
30999;DHT22;20549;50.042;8.968;2023-03-16T14:44:43;14.50;57.40
30999;DHT22;20549;50.042;8.968;2023-03-16T14:47:10;14.40;57.30
30999;DHT22;20549;50.042;8.968;2023-03-16T14:49:36;14.40;57.20
30999;DHT22;20549;50.042;8.968;2023-03-16T14:52:22;14.30;57.20
30999;DHT22;20549;50.042;8.968;2023-03-16T14:54:47;14.30;57.30
30999;DHT22;20549;50.042;8.968;2023-03-16T14:57:16;14.30;57.30
30999;DHT22;20549;50.042;8.968;2023-03-16T14:59:43;14.20;57.30
30999;DHT22;20549;50.042;8.968;2023-03-16T15:02:17;14.20;57.30
30999;DHT22;20549;50.042;8.968;2023-03-16T15:04:39;14.10;57.20
30999;DHT22;20549;50.042;8.968;2023-03-16T15:07:13;14.10;57.40
30999;DHT22;20549;50.042;8.968;2023-03-16T15:09:33;14.10;57.60
30999;DHT22;20549;50.042;8.968;2023-03-16T15:11:58;14.10;57.60
30999;DHT22;20549;50.042;8.968;2023-03-16T15:14:25;14.10;57.40
30999;DHT22;20549;50.042;8.968;2023-03-16T15:17:10;14.10;57.30
30999;DHT22;20549;50.042;8.968;2023-03-16T15:19:36;14.10;57.50
30999;DHT22;20549;50.042;8.968;2023-03-16T15:22:03;14.10;57.50
30999;DHT22;20549;50.042;8.968;2023-03-16T15:24:29;14.10;57.50
30999;DHT22;20549;50.042;8.968;2023-03-16T15:26:56;14.10;57.60
30999;DHT22;20549;50.042;8.968;2023-03-16T15:29:22;14.10;57.50
30999;DHT22;20549;50.042;8.968;2023-03-16T15:31:49;14.10;57.60
30999;DHT22;20549;50.042;8.968;2023-03-16T15:34:16;14.10;57.50
30999;DHT22;20549;50.042;8.968;2023-03-16T15:36:42;14.10;57.40
30999;DHT22;20549;50.042;8.968;2023-03-16T15:39:10;14.10;57.30
30999;DHT22;20549;50.042;8.968;2023-03-16T15:41:35;14.10;57.90
30999;DHT22;20549;50.042;8.968;2023-03-16T15:44:03;14.10;58.00
30999;DHT22;20549;50.042;8.968;2023-03-16T15:46:29;14.10;57.30
30999;DHT22;20549;50.042;8.968;2023-03-16T15:48:55;14.10;57.40
30999;DHT22;20549;50.042;8.968;2023-03-16T15:51:24;14.00;57.30
30999;DHT22;20549;50.042;8.968;2023-03-16T15:53:49;14.00;57.40
30999;DHT22;20549;50.042;8.968;2023-03-16T15:56:16;14.00;57.40
30999;DHT22;20549;50.042;8.968;2023-03-16T15:58:42;14.00;57.30
30999;DHT22;20549;50.042;8.968;2023-03-16T16:01:10;13.90;57.30
30999;DHT22;20549;50.042;8.968;2023-03-16T16:03:35;13.90;57.30
30999;DHT22;20549;50.042;8.968;2023-03-16T16:06:01;13.90;57.40
30999;DHT22;20549;50.042;8.968;2023-03-16T16:08:28;13.90;57.30
30999;DHT22;20549;50.042;8.968;2023-03-16T16:10:54;13.80;57.40
30999;DHT22;20549;50.042;8.968;2023-03-16T16:13:25;13.80;57.40
30999;DHT22;20549;50.042;8.968;2023-03-16T16:15:48;13.80;57.00
30999;DHT22;20549;50.042;8.968;2023-03-16T16:18:28;13.70;57.30
30999;DHT22;20549;50.042;8.968;2023-03-16T16:20:53;13.70;57.30
30999;DHT22;20549;50.042;8.968;2023-03-16T16:23:20;13.60;57.30